Argos, Indiana
Current Conditions -  °F | °C
As of 8:15 AM on Thursday 27 Nov 2014 (Local Time) from KRCR Reporting Station
Light Snow Light Snow  
Wind Chill: 26°   Ceiling: 1100
Heat Index: 32°   Visibility: 3mi
Dew Point: 30°   Wind: 6mph
Humidity: 93%   Direction: 270°W
Pressure: 30.23"   Gusts: NA
Location:  41.23°N, 86.24°W
Report Text: KRCR 271315Z AUTO 27005KT 3SM -SN SCT005 OVC011 00/M01 A3023 RMK AO2
Loading
Personal Weather Stations






























Interactive Weather Map New forecast layout! Learn more

10-Day Weather Forecast

Advertisements
Track Severe Weather on mobile